Time;durP1;ratioP1;P1;durP2;ratioP2;P2;SDS_P1;SDS_P2;PMS_P1;PMS_P2;Temp;Humidity;BMP_temperature;BMP_pressure;BME280_temperature;BME280_humidity;BME280_pressure;Samples;Min_cycle;Max_cycle;Signal;HPM_P1;HPM_P2
2022/12/18 00:01:05;;;;;;;1999.90;999.90;;;;;;;-4.32;100.00;95551.66;5033931;28;20182;-55
2022/12/18 00:03:35;;;;;;;1999.90;999.90;;;;;;;-4.29;100.00;95540.41;5033283;28;20186;-53
2022/12/18 00:06:01;;;;;;;1999.90;999.90;;;;;;;-4.22;100.00;95530.09;5033810;28;20228;-65
2022/12/18 00:08:27;;;;;;;1999.90;999.90;;;;;;;-4.28;100.00;95521.44;5034125;28;20178;-52
2022/12/18 00:10:52;;;;;;;1999.90;999.90;;;;;;;-4.19;100.00;95519.59;5033559;28;20171;-54
2022/12/18 00:13:17;;;;;;;1999.90;999.90;;;;;;;-4.35;100.00;95515.78;5034184;28;20189;-54
2022/12/18 00:15:43;;;;;;;1999.90;999.90;;;;;;;-4.43;100.00;95503.19;5034097;28;20202;-55
2022/12/18 00:18:08;;;;;;;1999.90;999.90;;;;;;;-4.38;100.00;95499.59;5033532;28;20229;-54
2022/12/18 00:20:38;;;;;;;1999.90;999.90;;;;;;;-4.29;100.00;95498.53;5033945;28;20228;-57
2022/12/18 00:23:04;;;;;;;1999.90;999.90;;;;;;;-4.33;100.00;95502.91;5033341;28;20229;-57
2022/12/18 00:25:32;;;;;;;1999.90;999.90;;;;;;;-4.31;100.00;95490.09;5033259;28;20202;-59
2022/12/18 00:27:58;;;;;;;1999.90;999.90;;;;;;;-4.39;100.00;95488.19;5035688;28;20171;-61
2022/12/18 00:30:23;;;;;;;1999.90;999.90;;;;;;;-4.46;100.00;95474.50;5037506;28;20174;-61
2022/12/18 00:32:48;;;;;;;1999.90;999.90;;;;;;;-4.32;100.00;95472.53;5037123;28;20182;-61
2022/12/18 00:35:14;;;;;;;1999.90;999.90;;;;;;;-4.38;100.00;95484.41;5037409;28;20244;-62
2022/12/18 00:37:39;;;;;;;1999.90;999.90;;;;;;;-4.39;100.00;95492.72;5037405;28;20217;-61
2022/12/18 00:40:05;;;;;;;1999.90;999.90;;;;;;;-4.33;100.00;95494.16;5036752;28;20178;-62
2022/12/18 00:45:14;;;;;;;1999.90;999.90;;;;;;;-4.41;100.00;95485.03;5038271;28;20210;-64
2022/12/18 00:47:40;;;;;;;1999.90;999.90;;;;;;;-4.51;100.00;95482.63;5037063;28;20185;-56
2022/12/18 00:50:08;;;;;;;1999.90;999.90;;;;;;;-4.49;100.00;95483.09;5017727;28;20215;-57
2022/12/18 00:52:34;;;;;;;1999.90;999.90;;;;;;;-4.46;100.00;95476.38;5017033;28;20266;-57
2022/12/18 00:54:59;;;;;;;1999.90;999.90;;;;;;;-4.44;100.00;95477.63;5017206;28;20203;-56
2022/12/18 00:57:24;;;;;;;1999.90;999.90;;;;;;;-4.33;100.00;95470.19;5017543;28;20182;-55
2022/12/18 00:59:50;;;;;;;1999.90;999.90;;;;;;;-4.45;100.00;95475.28;5016765;28;20270;-56
2022/12/18 01:02:15;;;;;;;1999.90;999.90;;;;;;;-4.53;100.00;95482.16;5016624;28;20178;-59
2022/12/18 01:04:40;;;;;;;1999.90;999.90;;;;;;;-4.47;100.00;95478.28;5016842;28;20207;-67
2022/12/18 01:07:05;;;;;;;1999.90;999.90;;;;;;;-4.45;100.00;95473.41;5017275;28;20218;-68
2022/12/18 01:09:31;;;;;;;1999.90;999.90;;;;;;;-4.50;100.00;95483.41;5017054;28;20200;-68
2022/12/18 01:11:56;;;;;;;1999.90;999.90;;;;;;;-4.47;100.00;95491.59;5016739;28;20213;-68
2022/12/18 01:14:21;;;;;;;1999.90;999.90;;;;;;;-4.40;100.00;95491.91;5016714;28;20184;-68
2022/12/18 01:16:47;;;;;;;1999.90;999.90;;;;;;;-4.38;100.00;95489.75;5017089;28;20286;-70
2022/12/18 01:19:12;;;;;;;1999.90;999.90;;;;;;;-4.44;100.00;95495.50;5016850;28;20175;-68
2022/12/18 01:21:38;;;;;;;1999.90;999.90;;;;;;;-4.47;100.00;95507.56;5017102;28;20175;-66
2022/12/18 01:24:04;;;;;;;1999.90;999.90;;;;;;;-4.57;100.00;95510.50;5016797;28;20175;-61
2022/12/18 01:26:30;;;;;;;1999.90;999.90;;;;;;;-4.59;100.00;95525.19;5016542;28;20175;-62
2022/12/18 01:28:56;;;;;;;1999.90;999.90;;;;;;;-4.55;100.00;95518.19;5016321;28;20180;-61
2022/12/18 01:31:27;;;;;;;1999.90;999.90;;;;;;;-4.47;100.00;95528.88;5016599;28;20266;-61
2022/12/18 01:33:53;;;;;;;1999.90;999.90;;;;;;;-4.42;100.00;95530.59;5016782;28;20171;-61
2022/12/18 01:36:30;;;;;;;1999.90;999.90;;;;;;;-4.50;100.00;95526.81;5016652;28;20180;-61
2022/12/18 01:38:56;;;;;;;1999.90;999.90;;;;;;;-4.48;100.00;95524.63;5016348;28;20229;-69
2022/12/18 01:41:25;;;;;;;1999.90;999.90;;;;;;;-4.42;100.00;95525.28;5017510;28;20176;-59
2022/12/18 01:43:53;;;;;;;1999.90;999.90;;;;;;;-4.42;100.00;95528.75;5016171;28;20176;-55
2022/12/18 01:46:21;;;;;;;1999.90;999.90;;;;;;;-4.41;100.00;95538.28;5016187;28;20226;-55
2022/12/18 01:48:49;;;;;;;1999.90;999.90;;;;;;;-4.54;100.00;95544.50;5024976;28;20222;-55
2022/12/18 01:51:15;;;;;;;1999.90;999.90;;;;;;;-4.49;100.00;95546.22;5035953;28;20214;-55
2022/12/18 01:53:43;;;;;;;1999.90;999.90;;;;;;;-4.56;100.00;95552.00;5035974;28;20171;-54
2022/12/18 01:56:14;;;;;;;1999.90;999.90;;;;;;;-4.55;100.00;95545.56;5036313;28;20332;-56
2022/12/18 01:58:43;;;;;;;1999.90;999.90;;;;;;;-4.57;100.00;95549.63;5036094;28;20175;-58
2022/12/18 02:01:09;;;;;;;1999.90;999.90;;;;;;;-4.55;100.00;95542.91;5035995;28;20171;-59
2022/12/18 02:03:35;;;;;;;1999.90;999.90;;;;;;;-4.50;100.00;95545.47;5035671;28;20266;-59
2022/12/18 02:06:23;;;;;;;1999.90;999.90;;;;;;;-4.57;100.00;95547.78;5036341;28;20218;-59
2022/12/18 02:09:10;;;;;;;1999.90;999.90;;;;;;;-4.52;100.00;95547.63;5035669;28;20174;-59
2022/12/18 02:11:52;;;;;;;1999.90;999.90;;;;;;;-4.54;100.00;95536.50;5036120;28;20220;-59
2022/12/18 02:14:19;;;;;;;1999.90;999.90;;;;;;;-4.46;100.00;95534.97;5036320;28;20167;-59
2022/12/18 02:16:56;;;;;;;1999.90;999.90;;;;;;;-4.48;100.00;95524.63;5036374;28;20175;-56
2022/12/18 02:19:42;;;;;;;1999.90;999.90;;;;;;;-4.50;100.00;95518.03;5036164;28;20171;-55
2022/12/18 02:22:37;;;;;;;1999.90;999.90;;;;;;;-4.55;100.00;95526.16;5035896;28;20170;-59
2022/12/18 02:25:34;;;;;;;1999.90;999.90;;;;;;;-4.53;100.00;95538.06;5000812;28;20297;-57
2022/12/18 02:28:01;;;;;;;1999.90;999.90;;;;;;;-4.56;100.00;95536.03;5035655;28;20181;-56
2022/12/18 02:30:31;;;;;;;1999.90;999.90;;;;;;;-4.48;100.00;95534.50;5035790;28;20167;-57
2022/12/18 02:32:58;;;;;;;1999.90;999.90;;;;;;;-4.48;100.00;95532.63;5034959;28;20252;-56
2022/12/18 02:35:27;;;;;;;1999.90;999.90;;;;;;;-4.52;100.00;95536.97;5035217;28;20183;-64
2022/12/18 02:37:54;;;;;;;1999.90;999.90;;;;;;;-4.57;100.00;95539.78;5035538;28;20177;-59
2022/12/18 02:40:21;;;;;;;1999.90;999.90;;;;;;;-4.51;100.00;95532.44;5035140;28;20183;-59
2022/12/18 02:42:47;;;;;;;1999.90;999.90;;;;;;;-4.55;100.00;95526.16;5035473;28;20261;-59
2022/12/18 02:45:12;;;;;;;1999.90;999.90;;;;;;;-4.58;100.00;95524.91;5034557;28;20285;-59
2022/12/18 02:47:40;;;;;;;1999.90;999.90;;;;;;;-4.57;100.00;95525.66;5034852;28;20182;-59
2022/12/18 02:50:29;;;;;;;1999.90;999.90;;;;;;;-4.59;100.00;95520.66;5034381;28;20197;-59
2022/12/18 02:53:01;;;;;;;1999.90;999.90;;;;;;;-4.64;100.00;95528.78;5035598;28;20192;-58
2022/12/18 02:55:32;;;;;;;1999.90;999.90;;;;;;;-4.64;100.00;95536.75;5035655;28;20187;-61
2022/12/18 02:58:14;;;;;;;1999.90;999.90;;;;;;;-4.57;100.00;95534.47;5035166;28;20227;-62
2022/12/18 03:00:48;;;;;;;1999.90;999.90;;;;;;;-4.54;100.00;95538.38;5035162;28;20174;-61
2022/12/18 03:03:18;;;;;;;1999.90;999.90;;;;;;;-4.57;100.00;95537.13;5035388;28;20163;-62
2022/12/18 03:05:50;;;;;;;1999.90;999.90;;;;;;;-4.55;100.00;95537.59;5034478;28;20252;-61
2022/12/18 03:08:26;;;;;;;1999.90;999.90;;;;;;;-4.48;100.00;95532.63;5035081;28;20169;-62
2022/12/18 03:11:02;;;;;;;1999.90;999.90;;;;;;;-4.63;100.00;95545.53;5034497;28;20236;-54
2022/12/18 03:13:44;;;;;;;1999.90;999.90;;;;;;;-4.60;100.00;95529.72;5035252;28;20174;-61
2022/12/18 03:16:14;;;;;;;1999.90;999.90;;;;;;;-4.58;100.00;95527.56;5034797;28;20170;-60
2022/12/18 03:18:57;;;;;;;1999.90;999.90;;;;;;;-4.61;100.00;95522.84;5034640;28;20212;-58
2022/12/18 03:21:29;;;;;;;1999.90;999.90;;;;;;;-4.66;100.00;95525.59;5034871;28;20175;-58
2022/12/18 03:23:55;;;;;;;1999.90;999.90;;;;;;;-4.65;100.00;95516.56;5034805;28;20255;-59
2022/12/18 03:26:25;;;;;;;1999.90;999.90;;;;;;;-4.56;100.00;95530.69;5034283;28;20210;-58
2022/12/18 03:28:55;;;;;;;1999.90;999.90;;;;;;;-4.53;100.00;95519.44;5034625;28;20261;-62
2022/12/18 03:31:26;;;;;;;1999.90;999.90;;;;;;;-4.50;100.00;95520.69;5034228;28;20229;-60
2022/12/18 03:34:01;;;;;;;1999.90;999.90;;;;;;;-4.52;100.00;95517.56;5034135;28;20190;-56
2022/12/18 03:36:26;;;;;;;1999.90;999.90;;;;;;;-4.39;100.00;95530.78;5034844;28;20193;-58
2022/12/18 03:38:52;;;;;;;1999.90;999.90;;;;;;;-4.45;100.00;95529.34;5033993;28;20171;-58
2022/12/18 03:41:44;;;;;;;1999.90;999.90;;;;;;;-4.56;100.00;95541.34;5033990;28;20175;-57
2022/12/18 03:44:26;;;;;;;1999.90;999.90;;;;;;;-4.48;100.00;95543.28;5033511;28;20171;-56
2022/12/18 03:47:00;;;;;;;1999.90;999.90;;;;;;;-4.47;100.00;95544.88;5034321;28;20173;-57
2022/12/18 03:49:33;;;;;;;1999.90;999.90;;;;;;;-4.49;100.00;95544.38;5033884;28;20255;-59
2022/12/18 03:52:03;;;;;;;1999.90;999.90;;;;;;;-4.50;100.00;95544.66;5034493;28;20273;-55
2022/12/18 03:54:31;;;;;;;1999.90;999.90;;;;;;;-4.48;100.00;95545.16;5033729;28;20258;-53
2022/12/18 03:57:04;;;;;;;1999.90;999.90;;;;;;;-4.41;100.00;95540.97;5033465;28;20182;-55
2022/12/18 03:59:31;;;;;;;1999.90;999.90;;;;;;;-4.45;100.00;95539.19;5034107;28;20278;-55
2022/12/18 04:02:00;;;;;;;1999.90;999.90;;;;;;;-4.44;100.00;95541.56;5033417;28;20174;-57
2022/12/18 04:04:27;;;;;;;1999.90;999.90;;;;;;;-4.41;100.00;95546.28;5034030;28;20214;-56
2022/12/18 04:06:53;;;;;;;1999.90;999.90;;;;;;;-4.35;100.00;95547.75;5033734;28;20206;-67
2022/12/18 04:09:20;;;;;;;1999.90;999.90;;;;;;;-4.35;100.00;95552.28;5034050;28;20182;-59
2022/12/18 04:11:46;;;;;;;1999.90;999.90;;;;;;;-4.35;100.00;95550.41;5033337;28;20179;-58
2022/12/18 04:14:12;;;;;;;1999.90;999.90;;;;;;;-4.32;100.00;95560.47;5033850;28;20250;-58
2022/12/18 04:16:37;;;;;;;1999.90;999.90;;;;;;;-4.33;100.00;95566.84;5033718;28;20262;-58
2022/12/18 04:19:03;;;;;;;1999.90;999.90;;;;;;;-4.27;100.00;95554.19;5033489;28;20229;-58
2022/12/18 04:21:28;;;;;;;1999.90;999.90;;;;;;;-4.25;100.00;95574.13;5033214;28;20175;-57
2022/12/18 04:23:54;;;;;;;1999.90;999.90;;;;;;;-4.37;100.00;95579.22;5033971;28;20179;-66
2022/12/18 04:26:20;;;;;;;1999.90;999.90;;;;;;;-4.41;100.00;95575.59;5033496;28;20218;-58
2022/12/18 04:28:45;;;;;;;1999.90;999.90;;;;;;;-4.38;100.00;95585.66;5033377;28;20201;-57
2022/12/18 04:31:10;;;;;;;1999.90;999.90;;;;;;;-4.30;100.00;95587.56;5033371;28;20238;-57
2022/12/18 04:33:36;;;;;;;1999.90;999.90;;;;;;;-4.39;100.00;95589.41;5033010;28;20175;-56
2022/12/18 04:36:01;;;;;;;1999.90;999.90;;;;;;;-4.35;100.00;95603.69;5033381;28;20182;-57
2022/12/18 04:38:26;;;;;;;1999.90;999.90;;;;;;;-4.48;100.00;95604.53;5033031;28;20174;-55
2022/12/18 04:40:52;;;;;;;1999.90;999.90;;;;;;;-4.44;100.00;95608.16;5033381;28;20181;-57
2022/12/18 04:43:17;;;;;;;1999.90;999.90;;;;;;;-4.43;100.00;95612.41;5033327;28;20185;-65
2022/12/18 04:45:42;;;;;;;1999.90;999.90;;;;;;;-4.44;100.00;95612.72;5033812;28;20233;-60
2022/12/18 04:48:08;;;;;;;1999.90;999.90;;;;;;;-4.38;100.00;95617.63;5033012;28;20231;-60
2022/12/18 04:50:33;;;;;;;1999.90;999.90;;;;;;;-4.50;100.00;95625.38;5033957;28;20175;-59
2022/12/18 04:52:58;;;;;;;1999.90;999.90;;;;;;;-4.45;100.00;95633.22;5033651;28;20178;-60
2022/12/18 04:55:24;;;;;;;1999.90;999.90;;;;;;;-4.53;100.00;95647.28;5033948;28;20183;-60
2022/12/18 04:57:49;;;;;;;1999.90;999.90;;;;;;;-4.54;100.00;95653.72;5033301;28;20681;-59
2022/12/18 05:00:15;;;;;;;1999.90;999.90;;;;;;;-4.46;100.00;95657.50;5033261;28;20182;-60
2022/12/18 05:02:40;;;;;;;1999.90;999.90;;;;;;;-4.38;100.00;95654.91;5033271;28;20167;-68
2022/12/18 05:05:06;;;;;;;1999.90;999.90;;;;;;;-4.41;100.00;95654.75;5032975;28;20217;-58
2022/12/18 05:07:31;;;;;;;1999.90;999.90;;;;;;;-4.47;100.00;95656.75;5033097;28;20202;-58
2022/12/18 05:09:57;;;;;;;1999.90;999.90;;;;;;;-4.41;100.00;95668.84;5034044;28;20174;-58
2022/12/18 05:12:22;;;;;;;1999.90;999.90;;;;;;;-4.42;100.00;95675.25;5032973;28;20184;-57
2022/12/18 05:14:47;;;;;;;1999.90;999.90;;;;;;;-4.50;100.00;95683.19;5035131;28;20186;-58
2022/12/18 05:17:13;;;;;;;1999.90;999.90;;;;;;;-4.57;100.00;95686.25;5036471;28;20175;-58
2022/12/18 05:19:38;;;;;;;1999.90;999.90;;;;;;;-4.49;100.00;95698.84;5036469;28;20179;-58
2022/12/18 05:22:03;;;;;;;1999.90;999.90;;;;;;;-4.36;100.00;95700.72;5036651;28;20175;-65
2022/12/18 05:24:29;;;;;;;1999.90;999.90;;;;;;;-4.41;100.00;95713.34;5036182;28;20253;-66
2022/12/18 05:26:54;;;;;;;1999.90;999.90;;;;;;;-4.37;100.00;95709.75;5037060;28;20217;-66
2022/12/18 05:29:19;;;;;;;1999.90;999.90;;;;;;;-4.54;100.00;95720.28;5036233;28;20182;-65
2022/12/18 05:31:45;;;;;;;1999.90;999.90;;;;;;;-4.48;100.00;95719.06;5036500;28;20182;-66
2022/12/18 05:34:10;;;;;;;1999.90;999.90;;;;;;;-4.46;100.00;95724.91;5036316;28;20178;-66
2022/12/18 05:36:36;;;;;;;1999.90;999.90;;;;;;;-4.39;100.00;95727.94;5036818;28;20206;-66
2022/12/18 05:39:01;;;;;;;1999.90;999.90;;;;;;;-4.54;100.00;95730.16;5036679;28;20178;-60
2022/12/18 05:41:28;;;;;;;1999.90;999.90;;;;;;;-4.44;100.00;95746.69;5036174;28;20229;-59
2022/12/18 05:43:53;;;;;;;1999.90;999.90;;;;;;;-4.51;100.00;95754.28;5036204;28;20201;-59
2022/12/18 05:46:19;;;;;;;1999.90;999.90;;;;;;;-4.44;100.00;95762.66;5035857;28;20206;-59
2022/12/18 05:48:44;;;;;;;1999.90;999.90;;;;;;;-4.42;100.00;95767.69;5035917;28;20222;-59
2022/12/18 05:51:16;;;;;;;1999.90;999.90;;;;;;;-4.51;100.00;95772.94;5035474;28;20183;-59
2022/12/18 05:53:42;;;;;;;1999.90;999.90;;;;;;;-4.50;100.00;95774.53;5036474;28;20180;-59
2022/12/18 05:56:11;;;;;;;1999.90;999.90;;;;;;;-4.39;100.00;95775.09;5035636;28;20189;-61
2022/12/18 05:58:37;;;;;;;1999.90;999.90;;;;;;;-4.41;100.00;95778.06;5035922;28;20174;-65
2022/12/18 06:01:12;;;;;;;1999.90;999.90;;;;;;;-4.48;100.00;95783.00;5035863;28;20209;-59
2022/12/18 06:03:37;;;;;;;1999.90;999.90;;;;;;;-4.50;100.00;95803.03;5036004;28;20171;-59
2022/12/18 06:06:03;;;;;;;1999.90;999.90;;;;;;;-4.53;100.00;95800.97;5035810;28;20272;-59
2022/12/18 06:08:28;;;;;;;1999.90;999.90;;;;;;;-4.51;100.00;95810.22;5035662;28;20209;-59
2022/12/18 06:10:54;;;;;;;1999.90;999.90;;;;;;;-4.47;100.00;95811.25;5035338;28;20178;-60
2022/12/18 06:13:20;;;;;;;1999.90;999.90;;;;;;;-4.47;100.00;95813.91;5036283;28;20189;-60
2022/12/18 06:15:45;;;;;;;1999.90;999.90;;;;;;;-4.50;100.00;95816.38;5035288;28;20174;-57
2022/12/18 06:18:11;;;;;;;1999.90;999.90;;;;;;;-4.51;100.00;95818.22;5035221;28;20179;-58
2022/12/18 06:20:39;;;;;;;1999.90;999.90;;;;;;;-4.58;100.00;95823.19;5035290;28;20175;-58
2022/12/18 06:23:05;;;;;;;1999.90;999.90;;;;;;;-4.62;100.00;95822.19;5035854;28;20170;-58
2022/12/18 06:25:30;;;;;;;1999.90;999.90;;;;;;;-4.58;100.00;95828.53;5034831;28;20232;-58
2022/12/18 06:27:55;;;;;;;1999.90;999.90;;;;;;;-4.64;100.00;95832.34;5035239;28;20179;-59
2022/12/18 06:30:21;;;;;;;1999.90;999.90;;;;;;;-4.58;100.00;95841.03;5035492;28;20175;-58
2022/12/18 06:32:48;;;;;;;1999.90;999.90;;;;;;;-4.61;100.00;95845.09;5035303;28;20179;-55
2022/12/18 06:35:13;;;;;;;1999.90;999.90;;;;;;;-4.61;100.00;95842.44;5035111;28;20178;-59
2022/12/18 06:37:39;;;;;;;1999.90;999.90;;;;;;;-4.57;100.00;95848.72;5074983;22;20595;-62
2022/12/18 06:40:05;;;;;;;1999.90;999.90;;;;;;;-4.66;100.00;95855.81;5035184;28;20544;-63
2022/12/18 06:42:31;;;;;;;1999.90;999.90;;;;;;;-4.64;100.00;95859.00;5035653;28;20179;-61
2022/12/18 06:44:57;;;;;;;1999.90;999.90;;;;;;;-4.66;100.00;95866.47;5034538;28;20211;-61
2022/12/18 06:47:22;;;;;;;1999.90;999.90;;;;;;;-4.68;100.00;95863.34;5035063;28;20178;-62
2022/12/18 06:49:47;;;;;;;1999.90;999.90;;;;;;;-4.65;100.00;95868.06;5035004;28;20262;-62
2022/12/18 06:52:14;;;;;;;1999.90;999.90;;;;;;;-4.57;100.00;95869.25;5034845;28;20349;-70
2022/12/18 06:54:39;;;;;;;1999.90;999.90;;;;;;;-4.50;100.00;95875.75;5034851;28;20266;-62
2022/12/18 06:57:04;;;;;;;1999.90;999.90;;;;;;;-4.44;100.00;95871.91;5034781;28;20194;-62
2022/12/18 06:59:30;;;;;;;1999.90;999.90;;;;;;;-4.35;100.00;95882.66;5035327;28;20217;-62
2022/12/18 07:01:55;;;;;;;1999.90;999.90;;;;;;;-4.60;100.00;95905.25;5034120;28;20236;-62
2022/12/18 07:04:20;;;;;;;1999.90;999.90;;;;;;;-4.72;100.00;95920.13;5034120;28;20229;-63
2022/12/18 07:06:46;;;;;;;1999.90;999.90;;;;;;;-4.86;100.00;95930.75;5034674;28;20178;-62
2022/12/18 07:09:11;;;;;;;1999.90;999.90;;;;;;;-4.91;100.00;95920.22;5035123;28;20202;-62
2022/12/18 07:11:37;;;;;;;1999.90;999.90;;;;;;;-4.83;100.00;95922.19;5034833;28;20265;-61
2022/12/18 07:14:02;;;;;;;1999.90;999.90;;;;;;;-4.89;100.00;95931.34;5034565;28;20198;-62
2022/12/18 07:16:28;;;;;;;1999.90;999.90;;;;;;;-4.93;100.00;95926.88;5034969;28;20178;-62
2022/12/18 07:18:56;;;;;;;1999.90;999.90;;;;;;;-4.81;100.00;95922.66;5034641;28;20179;-63
2022/12/18 07:21:23;;;;;;;1999.90;999.90;;;;;;;-4.78;100.00;95932.75;5034351;28;20176;-63
2022/12/18 07:23:49;;;;;;;1999.90;999.90;;;;;;;-4.75;100.00;95937.50;5034807;28;20171;-62
2022/12/18 07:26:17;;;;;;;1999.90;999.90;;;;;;;-4.79;100.00;95941.03;5034273;28;20194;-64
2022/12/18 07:28:42;;;;;;;1999.90;999.90;;;;;;;-4.83;100.00;95940.81;5034085;28;20167;-73
2022/12/18 07:31:11;;;;;;;1999.90;999.90;;;;;;;-4.86;100.00;95946.72;5034218;28;20180;-62
2022/12/18 07:33:37;;;;;;;1999.90;999.90;;;;;;;-4.82;100.00;95950.38;5034137;28;20166;-65
2022/12/18 07:36:05;;;;;;;1999.90;999.90;;;;;;;-4.84;100.00;95952.53;5034489;28;20182;-65
2022/12/18 07:38:30;;;;;;;1999.90;999.90;;;;;;;-4.85;100.00;95958.94;5033590;28;20292;-65
2022/12/18 07:41:08;;;;;;;1999.90;999.90;;;;;;;-4.83;100.00;95962.13;5033738;28;20214;-65
2022/12/18 07:43:34;;;;;;;1999.90;999.90;;;;;;;-4.97;100.00;95961.28;5033958;28;20217;-66
2022/12/18 07:45:59;;;;;;;1999.90;999.90;;;;;;;-5.03;100.00;95953.69;5034374;28;20256;-64
2022/12/18 07:48:25;;;;;;;1999.90;999.90;;;;;;;-4.98;100.00;95954.41;5033938;28;20176;-72
2022/12/18 07:50:50;;;;;;;1999.90;999.90;;;;;;;-5.01;100.00;95954.97;5034009;28;20170;-71
2022/12/18 07:53:15;;;;;;;1999.90;999.90;;;;;;;-5.04;100.00;95952.88;5033881;28;20639;-72
2022/12/18 07:55:41;;;;;;;1999.90;999.90;;;;;;;-4.89;100.00;95934.00;5034584;28;20181;-71
2022/12/18 07:58:08;;;;;;;1999.90;999.90;;;;;;;-4.85;100.00;95932.34;5034321;28;20170;-70
2022/12/18 08:00:34;;;;;;;1999.90;999.90;;;;;;;-4.79;100.00;95933.84;5033582;28;20232;-70
2022/12/18 08:02:59;;;;;;;1999.90;999.90;;;;;;;-4.78;100.00;95943.41;5034215;28;20169;-70
2022/12/18 08:05:24;;;;;;;1999.90;999.90;;;;;;;-4.77;100.00;95944.97;5033609;28;20272;-62
2022/12/18 08:07:50;;;;;;;1999.90;999.90;;;;;;;-4.84;100.00;95954.44;5033317;28;20171;-65
2022/12/18 08:10:16;;;;;;;1999.90;999.90;;;;;;;-4.91;100.00;95965.47;5033586;28;20177;-61
2022/12/18 08:12:41;;;;;;;1999.90;999.90;;;;;;;-4.90;100.00;95961.72;5034079;28;20175;-59
2022/12/18 08:15:08;;;;;;;1999.90;999.90;;;;;;;-4.78;100.00;95970.03;5033810;28;20191;-59
2022/12/18 08:17:34;;;;;;;1999.90;999.90;;;;;;;-4.82;100.00;95969.03;5033050;28;20179;-60
2022/12/18 08:19:59;;;;;;;1999.90;999.90;;;;;;;-4.76;100.00;95975.06;5033727;28;20185;-59
2022/12/18 08:22:25;;;;;;;1999.90;999.90;;;;;;;-4.60;100.00;95977.16;5033479;28;20182;-60
2022/12/18 08:24:50;;;;;;;1999.90;999.90;;;;;;;-4.67;100.00;95968.75;5033718;28;20219;-65
2022/12/18 08:27:16;;;;;;;1999.90;999.90;;;;;;;-4.50;100.00;95982.31;5033362;28;20174;-69
2022/12/18 08:29:41;;;;;;;1999.90;999.90;;;;;;;-4.51;100.00;95996.69;5033763;28;20194;-66
2022/12/18 08:32:06;;;;;;;1999.90;999.90;;;;;;;-4.58;100.00;96001.66;5034196;28;20166;-65
2022/12/18 08:34:32;;;;;;;1999.90;999.90;;;;;;;-4.45;100.00;96000.88;5033267;28;20175;-67
2022/12/18 08:36:57;;;;;;;1999.90;999.90;;;;;;;-4.32;100.00;96001.97;5033151;28;20271;-68
2022/12/18 08:39:22;;;;;;;1999.90;999.90;;;;;;;-4.31;100.00;96007.00;5033350;28;20267;-67
2022/12/18 08:44:37;;;;;;;1999.90;999.90;;;;;;;-4.28;100.00;96032.28;5033470;28;20205;-61
2022/12/18 08:44:39;;;;;;;1999.90;999.90;;;;;;;-4.35;100.00;96042.53;5034156;28;20195;-63
2022/12/18 08:47:06;;;;;;;1999.90;999.90;;;;;;;-4.64;100.00;96066.72;5033991;28;20183;-61
2022/12/18 08:49:32;;;;;;;1999.90;999.90;;;;;;;-4.41;100.00;96070.34;5035136;28;20175;-61
2022/12/18 08:51:57;;;;;;;1999.90;999.90;;;;;;;-4.38;100.00;96083.88;5037129;28;20179;-61
2022/12/18 08:54:23;;;;;;;1999.90;999.90;;;;;;;-4.44;100.00;96084.25;5037005;28;20186;-61
2022/12/18 08:56:49;;;;;;;1999.90;999.90;;;;;;;-4.52;100.00;96096.34;5036562;28;20182;-61
2022/12/18 08:59:16;;;;;;;1999.90;999.90;;;;;;;-4.66;100.00;96106.16;5036971;28;20269;-61
2022/12/18 09:01:41;;;;;;;1999.90;999.90;;;;;;;-4.53;100.00;96105.44;5037231;28;20170;-66
2022/12/18 09:04:08;;;;;;;1999.90;999.90;;;;;;;-4.49;100.00;96109.09;5036882;28;20258;-62
2022/12/18 09:06:34;;;;;;;1999.90;999.90;;;;;;;-4.39;100.00;96118.81;5037313;28;20213;-63
2022/12/18 09:08:59;;;;;;;1999.90;999.90;;;;;;;-4.37;100.00;96124.63;5036981;28;20179;-62
2022/12/18 09:11:27;;;;;;;1999.90;999.90;;;;;;;-4.23;100.00;96126.25;5036717;28;20185;-61
2022/12/18 09:13:53;;;;;;;1999.90;999.90;;;;;;;-4.13;100.00;96136.75;5036594;28;20170;-62
2022/12/18 09:16:19;;;;;;;1999.90;999.90;;;;;;;-4.26;100.00;96148.16;5036499;28;20174;-63
2022/12/18 09:18:45;;;;;;;1999.90;999.90;;;;;;;-4.19;100.00;96153.91;5036158;28;20181;-66
2022/12/18 09:21:32;;;;;;;1999.90;999.90;;;;;;;-4.42;100.00;96170.81;5037357;28;20227;-61
2022/12/18 09:23:58;;;;;;;1999.90;999.90;;;;;;;-4.40;100.00;96173.94;5037234;28;20261;-70
2022/12/18 09:26:25;;;;;;;1999.90;999.90;;;;;;;-4.34;100.00;96174.66;5036345;28;20233;-72
2022/12/18 09:28:51;;;;;;;1999.90;999.90;;;;;;;-4.11;100.00;96171.91;5036369;28;20183;-73
2022/12/18 09:31:18;;;;;;;1999.90;999.90;;;;;;;-4.10;100.00;96178.84;5036370;28;20182;-72
2022/12/18 09:33:45;;;;;;;1999.90;999.90;;;;;;;-4.06;100.00;96182.50;5036923;28;20189;-72
2022/12/18 09:36:12;;;;;;;1999.90;999.90;;;;;;;-3.98;100.00;96191.69;5036340;28;20190;-71
2022/12/18 09:38:38;;;;;;;1999.90;999.90;;;;;;;-3.98;100.00;96203.16;5036254;28;20227;-63
2022/12/18 09:41:22;;;;;;;1999.90;999.90;;;;;;;-4.03;100.00;96221.91;5037233;28;20179;-71
2022/12/18 09:43:51;;;;;;;1999.90;999.90;;;;;;;-3.99;100.00;96225.56;5036811;28;20210;-68
2022/12/18 09:46:34;;;;;;;1999.90;999.90;;;;;;;-3.78;100.00;96224.13;5036035;28;20249;-70
2022/12/18 09:49:06;;;;;;;1999.90;999.90;;;;;;;-4.05;100.00;96245.38;5036713;28;20175;-71
2022/12/18 09:51:57;;;;;;;1999.90;999.90;;;;;;;-3.87;100.00;96251.78;5036347;28;20262;-71
2022/12/18 09:54:32;;;;;;;1999.90;999.90;;;;;;;-3.92;100.00;96259.84;5036667;28;20186;-67
2022/12/18 09:56:58;;;;;;;1999.90;999.90;;;;;;;-3.85;100.00;96258.41;5036199;28;20170;-68
2022/12/18 09:59:26;;;;;;;1999.90;999.90;;;;;;;-4.11;100.00;96267.09;5035462;28;20180;-66
2022/12/18 10:01:52;;;;;;;1999.90;999.90;;;;;;;-4.27;100.00;96279.03;5035679;28;20179;-67
2022/12/18 10:04:18;;;;;;;1999.90;999.90;;;;;;;-4.12;100.00;96266.28;5035700;28;20264;-69
2022/12/18 10:06:57;;;;;;;1999.90;999.90;;;;;;;-4.42;100.00;96276.56;5035825;28;20179;-67
2022/12/18 10:09:41;;;;;;;1999.90;999.90;;;;;;;-4.27;100.00;96273.69;5036316;28;20249;-65
2022/12/18 10:12:16;;;;;;;1999.90;999.90;;;;;;;-4.19;100.00;96268.50;5036144;28;20163;-64
2022/12/18 10:15:21;;;;;;;1999.90;999.90;;;;;;;-4.40;100.00;96263.75;5036266;28;20264;-68
2022/12/18 10:17:53;;;;;;;1999.90;999.90;;;;;;;-4.10;100.00;96253.47;5002688;28;20187;-71
2022/12/18 10:20:24;;;;;;;1999.90;999.90;;;;;;;-4.28;100.00;96254.28;5035547;28;20177;-75
2022/12/18 10:23:15;;;;;;;1999.90;999.90;;;;;;;-4.22;100.00;96258.44;5035454;28;20178;-72
2022/12/18 10:25:55;;;;;;;1999.90;999.90;;;;;;;-4.04;100.00;96265.63;5031476;28;20747;-73
2022/12/18 10:28:21;;;;;;;1999.90;999.90;;;;;;;-4.45;100.00;96275.28;5035410;28;20171;-73
2022/12/18 10:30:46;;;;;;;1999.90;999.90;;;;;;;-4.23;100.00;96251.53;5035832;28;20178;-74
2022/12/18 10:33:16;;;;;;;1999.90;999.90;;;;;;;-4.18;100.00;96254.09;5035636;28;20286;-65
2022/12/18 10:35:42;;;;;;;1999.90;999.90;;;;;;;-4.20;100.00;96247.47;5034871;28;20166;-69
2022/12/18 10:38:14;;;;;;;1999.90;999.90;;;;;;;-4.22;100.00;96244.31;5035148;28;20221;-68
2022/12/18 10:40:59;;;;;;;1999.90;999.90;;;;;;;-4.04;100.00;96243.53;5036155;28;20179;-67
2022/12/18 10:43:29;;;;;;;1999.90;999.90;;;;;;;-4.13;100.00;96246.03;5034911;28;20179;-68
2022/12/18 10:46:02;;;;;;;1999.90;999.90;;;;;;;-3.90;100.00;96247.81;5034849;28;20210;-69
2022/12/18 10:48:28;;;;;;;1999.90;999.90;;;;;;;-4.28;100.00;96256.94;5034868;28;20167;-67
2022/12/18 10:50:54;;;;;;;1999.90;999.90;;;;;;;-4.03;100.00;96259.22;5034883;28;20171;-67
2022/12/18 10:53:25;;;;;;;1999.90;999.90;;;;;;;-4.10;100.00;96258.81;5034127;28;20238;-67
2022/12/18 10:55:53;;;;;;;1999.90;999.90;;;;;;;-4.26;100.00;96260.09;5018118;28;20189;-61